sensor_id;sensor_type;location;lat;lon;timestamp;P1;durP1;ratioP1;P2;durP2;ratioP2
47021;SDS011;32779;52.264;6.154;2022-07-19T00:01:35;2.60;;;2.03;;
47021;SDS011;32779;52.264;6.154;2022-07-19T00:04:01;3.15;;;2.00;;
47021;SDS011;32779;52.264;6.154;2022-07-19T00:06:26;6.50;;;2.65;;
47021;SDS011;32779;52.264;6.154;2022-07-19T00:08:52;3.50;;;2.22;;
47021;SDS011;32779;52.264;6.154;2022-07-19T00:11:18;3.67;;;2.42;;
47021;SDS011;32779;52.264;6.154;2022-07-19T00:13:44;4.30;;;2.53;;
47021;SDS011;32779;52.264;6.154;2022-07-19T00:16:09;5.50;;;2.15;;
47021;SDS011;32779;52.264;6.154;2022-07-19T00:18:35;3.33;;;2.05;;
47021;SDS011;32779;52.264;6.154;2022-07-19T00:21:00;4.28;;;2.40;;
47021;SDS011;32779;52.264;6.154;2022-07-19T00:23:26;4.25;;;2.30;;
47021;SDS011;32779;52.264;6.154;2022-07-19T00:25:51;3.38;;;2.08;;
47021;SDS011;32779;52.264;6.154;2022-07-19T00:28:17;4.68;;;2.15;;
47021;SDS011;32779;52.264;6.154;2022-07-19T00:30:43;6.95;;;2.72;;
47021;SDS011;32779;52.264;6.154;2022-07-19T00:33:08;4.15;;;2.20;;
47021;SDS011;32779;52.264;6.154;2022-07-19T00:35:35;6.47;;;2.40;;
47021;SDS011;32779;52.264;6.154;2022-07-19T00:38:05;2.95;;;2.08;;
47021;SDS011;32779;52.264;6.154;2022-07-19T00:40:35;4.55;;;2.38;;
47021;SDS011;32779;52.264;6.154;2022-07-19T00:43:02;5.75;;;2.55;;
47021;SDS011;32779;52.264;6.154;2022-07-19T00:45:28;5.90;;;2.28;;
47021;SDS011;32779;52.264;6.154;2022-07-19T00:47:53;3.83;;;2.30;;
47021;SDS011;32779;52.264;6.154;2022-07-19T00:50:19;3.83;;;2.25;;
47021;SDS011;32779;52.264;6.154;2022-07-19T00:52:46;6.68;;;2.42;;
47021;SDS011;32779;52.264;6.154;2022-07-19T00:55:17;4.95;;;2.78;;
47021;SDS011;32779;52.264;6.154;2022-07-19T00:57:43;5.85;;;2.75;;
47021;SDS011;32779;52.264;6.154;2022-07-19T01:00:10;3.92;;;2.13;;
47021;SDS011;32779;52.264;6.154;2022-07-19T01:02:37;5.82;;;2.60;;
47021;SDS011;32779;52.264;6.154;2022-07-19T01:05:03;5.88;;;2.80;;
47021;SDS011;32779;52.264;6.154;2022-07-19T01:07:31;5.13;;;2.53;;
47021;SDS011;32779;52.264;6.154;2022-07-19T01:10:00;5.35;;;2.42;;
47021;SDS011;32779;52.264;6.154;2022-07-19T01:12:28;4.20;;;1.98;;
47021;SDS011;32779;52.264;6.154;2022-07-19T01:14:58;8.90;;;2.88;;
47021;SDS011;32779;52.264;6.154;2022-07-19T01:17:24;4.38;;;2.38;;
47021;SDS011;32779;52.264;6.154;2022-07-19T01:19:50;5.78;;;2.40;;
47021;SDS011;32779;52.264;6.154;2022-07-19T01:22:15;5.00;;;2.53;;
47021;SDS011;32779;52.264;6.154;2022-07-19T01:24:41;4.22;;;2.40;;
47021;SDS011;32779;52.264;6.154;2022-07-19T01:27:07;3.83;;;2.42;;
47021;SDS011;32779;52.264;6.154;2022-07-19T01:29:33;5.40;;;3.15;;
47021;SDS011;32779;52.264;6.154;2022-07-19T01:32:01;3.45;;;2.22;;
47021;SDS011;32779;52.264;6.154;2022-07-19T01:34:28;5.20;;;2.22;;
47021;SDS011;32779;52.264;6.154;2022-07-19T01:36:53;5.07;;;2.35;;
47021;SDS011;32779;52.264;6.154;2022-07-19T01:39:19;2.63;;;2.25;;
47021;SDS011;32779;52.264;6.154;2022-07-19T01:41:45;2.95;;;2.30;;
47021;SDS011;32779;52.264;6.154;2022-07-19T01:44:10;4.32;;;2.80;;
47021;SDS011;32779;52.264;6.154;2022-07-19T01:46:36;5.72;;;2.30;;
47021;SDS011;32779;52.264;6.154;2022-07-19T01:49:01;5.10;;;2.38;;
47021;SDS011;32779;52.264;6.154;2022-07-19T01:51:27;7.32;;;2.75;;
47021;SDS011;32779;52.264;6.154;2022-07-19T01:53:53;4.82;;;2.20;;
47021;SDS011;32779;52.264;6.154;2022-07-19T01:56:18;4.72;;;2.47;;
47021;SDS011;32779;52.264;6.154;2022-07-19T01:58:44;3.65;;;2.40;;
47021;SDS011;32779;52.264;6.154;2022-07-19T02:01:10;6.45;;;2.50;;
47021;SDS011;32779;52.264;6.154;2022-07-19T02:03:35;6.45;;;2.60;;
47021;SDS011;32779;52.264;6.154;2022-07-19T02:06:01;4.70;;;2.47;;
47021;SDS011;32779;52.264;6.154;2022-07-19T02:08:26;4.53;;;2.60;;
47021;SDS011;32779;52.264;6.154;2022-07-19T02:10:52;3.85;;;2.63;;
47021;SDS011;32779;52.264;6.154;2022-07-19T02:13:18;3.58;;;2.08;;
47021;SDS011;32779;52.264;6.154;2022-07-19T02:15:43;4.75;;;2.65;;
47021;SDS011;32779;52.264;6.154;2022-07-19T02:18:09;4.00;;;2.10;;
47021;SDS011;32779;52.264;6.154;2022-07-19T02:20:34;5.57;;;2.60;;
47021;SDS011;32779;52.264;6.154;2022-07-19T02:23:00;6.28;;;2.92;;
47021;SDS011;32779;52.264;6.154;2022-07-19T02:25:25;7.18;;;2.33;;
47021;SDS011;32779;52.264;6.154;2022-07-19T02:27:51;4.78;;;2.90;;
47021;SDS011;32779;52.264;6.154;2022-07-19T02:30:18;3.67;;;2.33;;
47021;SDS011;32779;52.264;6.154;2022-07-19T02:32:44;4.00;;;2.65;;
47021;SDS011;32779;52.264;6.154;2022-07-19T02:35:10;4.35;;;2.83;;
47021;SDS011;32779;52.264;6.154;2022-07-19T02:37:37;4.93;;;3.03;;
47021;SDS011;32779;52.264;6.154;2022-07-19T02:40:06;3.85;;;2.42;;
47021;SDS011;32779;52.264;6.154;2022-07-19T02:42:33;5.38;;;2.80;;
47021;SDS011;32779;52.264;6.154;2022-07-19T02:47:24;4.15;;;2.85;;
47021;SDS011;32779;52.264;6.154;2022-07-19T02:49:50;5.15;;;2.90;;
47021;SDS011;32779;52.264;6.154;2022-07-19T02:52:15;5.30;;;3.08;;
47021;SDS011;32779;52.264;6.154;2022-07-19T02:54:41;5.88;;;2.55;;
47021;SDS011;32779;52.264;6.154;2022-07-19T02:57:06;6.13;;;2.58;;
47021;SDS011;32779;52.264;6.154;2022-07-19T02:59:32;6.00;;;2.72;;
47021;SDS011;32779;52.264;6.154;2022-07-19T03:01:58;3.67;;;2.75;;
47021;SDS011;32779;52.264;6.154;2022-07-19T03:04:23;6.93;;;3.55;;
47021;SDS011;32779;52.264;6.154;2022-07-19T03:06:49;5.70;;;2.92;;
47021;SDS011;32779;52.264;6.154;2022-07-19T03:09:14;6.65;;;2.88;;
47021;SDS011;32779;52.264;6.154;2022-07-19T03:11:40;5.43;;;2.85;;
47021;SDS011;32779;52.264;6.154;2022-07-19T03:14:05;7.18;;;3.08;;
47021;SDS011;32779;52.264;6.154;2022-07-19T03:16:31;3.97;;;2.55;;
47021;SDS011;32779;52.264;6.154;2022-07-19T03:18:57;3.95;;;2.63;;
47021;SDS011;32779;52.264;6.154;2022-07-19T03:21:22;6.10;;;2.88;;
47021;SDS011;32779;52.264;6.154;2022-07-19T03:26:14;8.32;;;2.50;;
47021;SDS011;32779;52.264;6.154;2022-07-19T03:28:39;7.35;;;2.85;;
47021;SDS011;32779;52.264;6.154;2022-07-19T03:31:05;3.95;;;2.78;;
47021;SDS011;32779;52.264;6.154;2022-07-19T03:33:31;3.30;;;2.40;;
47021;SDS011;32779;52.264;6.154;2022-07-19T03:35:56;6.78;;;3.10;;
47021;SDS011;32779;52.264;6.154;2022-07-19T03:40:47;5.15;;;3.20;;
47021;SDS011;32779;52.264;6.154;2022-07-19T03:43:14;6.13;;;3.20;;
47021;SDS011;32779;52.264;6.154;2022-07-19T03:45:41;4.30;;;2.88;;
47021;SDS011;32779;52.264;6.154;2022-07-19T03:48:07;5.45;;;3.03;;
47021;SDS011;32779;52.264;6.154;2022-07-19T03:50:32;6.10;;;3.53;;
47021;SDS011;32779;52.264;6.154;2022-07-19T03:52:58;3.88;;;2.80;;
47021;SDS011;32779;52.264;6.154;2022-07-19T03:57:49;4.63;;;2.95;;
47021;SDS011;32779;52.264;6.154;2022-07-19T04:02:40;4.22;;;2.78;;
47021;SDS011;32779;52.264;6.154;2022-07-19T04:05:06;3.67;;;2.50;;
47021;SDS011;32779;52.264;6.154;2022-07-19T04:07:32;3.95;;;2.95;;
47021;SDS011;32779;52.264;6.154;2022-07-19T04:09:58;4.20;;;3.05;;
47021;SDS011;32779;52.264;6.154;2022-07-19T04:14:49;4.50;;;3.17;;
47021;SDS011;32779;52.264;6.154;2022-07-19T04:19:41;5.15;;;2.92;;
47021;SDS011;32779;52.264;6.154;2022-07-19T04:22:06;5.85;;;3.20;;
47021;SDS011;32779;52.264;6.154;2022-07-19T04:24:32;3.55;;;3.15;;
47021;SDS011;32779;52.264;6.154;2022-07-19T04:26:57;5.63;;;3.15;;
47021;SDS011;32779;52.264;6.154;2022-07-19T04:31:48;7.72;;;3.67;;
47021;SDS011;32779;52.264;6.154;2022-07-19T04:36:39;7.07;;;3.22;;
47021;SDS011;32779;52.264;6.154;2022-07-19T04:39:05;7.55;;;3.42;;
47021;SDS011;32779;52.264;6.154;2022-07-19T04:43:56;4.22;;;2.63;;
47021;SDS011;32779;52.264;6.154;2022-07-19T04:46:21;4.88;;;3.17;;
47021;SDS011;32779;52.264;6.154;2022-07-19T04:48:47;6.05;;;4.00;;
47021;SDS011;32779;52.264;6.154;2022-07-19T04:51:12;4.80;;;3.63;;
47021;SDS011;32779;52.264;6.154;2022-07-19T04:53:38;6.43;;;3.65;;
47021;SDS011;32779;52.264;6.154;2022-07-19T04:56:04;8.00;;;3.80;;
47021;SDS011;32779;52.264;6.154;2022-07-19T05:00:56;6.13;;;3.90;;
47021;SDS011;32779;52.264;6.154;2022-07-19T05:05:47;8.25;;;3.75;;
47021;SDS011;32779;52.264;6.154;2022-07-19T05:08:12;6.50;;;3.97;;
47021;SDS011;32779;52.264;6.154;2022-07-19T05:13:03;6.18;;;3.95;;
47021;SDS011;32779;52.264;6.154;2022-07-19T05:15:29;14.70;;;5.35;;
47021;SDS011;32779;52.264;6.154;2022-07-19T05:17:55;6.15;;;3.40;;
47021;SDS011;32779;52.264;6.154;2022-07-19T05:20:20;8.88;;;4.72;;
47021;SDS011;32779;52.264;6.154;2022-07-19T05:22:46;12.02;;;3.92;;
47021;SDS011;32779;52.264;6.154;2022-07-19T05:25:12;11.00;;;4.78;;
47021;SDS011;32779;52.264;6.154;2022-07-19T05:27:37;9.98;;;4.93;;
47021;SDS011;32779;52.264;6.154;2022-07-19T05:30:03;8.77;;;5.30;;
47021;SDS011;32779;52.264;6.154;2022-07-19T05:32:29;7.35;;;4.43;;
47021;SDS011;32779;52.264;6.154;2022-07-19T05:34:55;10.32;;;5.20;;
47021;SDS011;32779;52.264;6.154;2022-07-19T05:37:20;7.95;;;4.75;;
47021;SDS011;32779;52.264;6.154;2022-07-19T05:39:46;5.70;;;4.32;;
47021;SDS011;32779;52.264;6.154;2022-07-19T05:42:12;11.65;;;5.05;;
47021;SDS011;32779;52.264;6.154;2022-07-19T05:44:37;8.25;;;5.20;;
47021;SDS011;32779;52.264;6.154;2022-07-19T05:47:03;9.48;;;5.47;;
47021;SDS011;32779;52.264;6.154;2022-07-19T05:49:28;8.30;;;5.32;;
47021;SDS011;32779;52.264;6.154;2022-07-19T05:51:54;8.98;;;5.28;;
47021;SDS011;32779;52.264;6.154;2022-07-19T05:54:20;12.18;;;6.55;;
47021;SDS011;32779;52.264;6.154;2022-07-19T05:56:45;11.48;;;5.43;;
47021;SDS011;32779;52.264;6.154;2022-07-19T05:59:11;14.23;;;6.25;;
47021;SDS011;32779;52.264;6.154;2022-07-19T06:01:36;12.45;;;5.80;;
47021;SDS011;32779;52.264;6.154;2022-07-19T06:04:02;9.05;;;5.80;;
47021;SDS011;32779;52.264;6.154;2022-07-19T06:06:29;10.88;;;6.43;;
47021;SDS011;32779;52.264;6.154;2022-07-19T06:08:56;10.95;;;6.85;;
47021;SDS011;32779;52.264;6.154;2022-07-19T06:11:22;10.57;;;5.88;;
47021;SDS011;32779;52.264;6.154;2022-07-19T06:13:49;13.50;;;6.43;;
47021;SDS011;32779;52.264;6.154;2022-07-19T06:16:15;13.85;;;6.63;;
47021;SDS011;32779;52.264;6.154;2022-07-19T06:18:41;15.07;;;6.05;;
47021;SDS011;32779;52.264;6.154;2022-07-19T06:21:07;14.38;;;6.57;;
47021;SDS011;32779;52.264;6.154;2022-07-19T06:23:38;8.73;;;5.93;;
47021;SDS011;32779;52.264;6.154;2022-07-19T06:26:04;10.20;;;5.95;;
47021;SDS011;32779;52.264;6.154;2022-07-19T06:28:31;9.63;;;5.43;;
47021;SDS011;32779;52.264;6.154;2022-07-19T06:30:57;10.23;;;5.50;;
47021;SDS011;32779;52.264;6.154;2022-07-19T06:33:22;14.55;;;6.80;;
47021;SDS011;32779;52.264;6.154;2022-07-19T06:35:48;11.50;;;6.47;;
47021;SDS011;32779;52.264;6.154;2022-07-19T06:38:14;20.73;;;6.63;;
47021;SDS011;32779;52.264;6.154;2022-07-19T06:40:41;12.43;;;6.30;;
47021;SDS011;32779;52.264;6.154;2022-07-19T06:43:07;7.78;;;4.97;;
47021;SDS011;32779;52.264;6.154;2022-07-19T06:45:33;26.83;;;6.75;;
47021;SDS011;32779;52.264;6.154;2022-07-19T06:47:58;10.50;;;6.15;;
47021;SDS011;32779;52.264;6.154;2022-07-19T06:50:24;11.07;;;6.20;;
47021;SDS011;32779;52.264;6.154;2022-07-19T06:52:50;10.85;;;6.15;;
47021;SDS011;32779;52.264;6.154;2022-07-19T06:55:15;11.55;;;6.13;;
47021;SDS011;32779;52.264;6.154;2022-07-19T06:57:41;9.20;;;5.60;;
47021;SDS011;32779;52.264;6.154;2022-07-19T07:00:07;9.38;;;5.15;;
47021;SDS011;32779;52.264;6.154;2022-07-19T07:02:37;11.98;;;5.20;;
47021;SDS011;32779;52.264;6.154;2022-07-19T07:05:04;14.73;;;5.32;;
47021;SDS011;32779;52.264;6.154;2022-07-19T07:07:31;11.68;;;5.28;;
47021;SDS011;32779;52.264;6.154;2022-07-19T07:09:57;10.60;;;5.68;;
47021;SDS011;32779;52.264;6.154;2022-07-19T07:12:22;16.05;;;6.13;;
47021;SDS011;32779;52.264;6.154;2022-07-19T07:14:48;13.60;;;6.28;;
47021;SDS011;32779;52.264;6.154;2022-07-19T07:17:13;14.50;;;4.55;;
47021;SDS011;32779;52.264;6.154;2022-07-19T07:19:39;11.63;;;5.40;;
47021;SDS011;32779;52.264;6.154;2022-07-19T07:22:04;18.50;;;5.90;;
47021;SDS011;32779;52.264;6.154;2022-07-19T07:24:30;9.05;;;5.07;;
47021;SDS011;32779;52.264;6.154;2022-07-19T07:26:56;10.52;;;4.20;;
47021;SDS011;32779;52.264;6.154;2022-07-19T07:29:21;10.30;;;4.05;;
47021;SDS011;32779;52.264;6.154;2022-07-19T07:31:47;10.07;;;4.35;;
47021;SDS011;32779;52.264;6.154;2022-07-19T07:34:12;8.52;;;3.58;;
47021;SDS011;32779;52.264;6.154;2022-07-19T07:36:38;16.48;;;3.85;;
47021;SDS011;32779;52.264;6.154;2022-07-19T07:39:04;6.00;;;3.30;;
47021;SDS011;32779;52.264;6.154;2022-07-19T07:41:29;10.15;;;3.67;;
47021;SDS011;32779;52.264;6.154;2022-07-19T07:43:55;11.55;;;3.17;;
47021;SDS011;32779;52.264;6.154;2022-07-19T07:46:21;12.07;;;2.60;;
47021;SDS011;32779;52.264;6.154;2022-07-19T07:48:46;5.72;;;2.67;;
47021;SDS011;32779;52.264;6.154;2022-07-19T07:51:12;6.82;;;2.88;;
47021;SDS011;32779;52.264;6.154;2022-07-19T07:53:37;5.57;;;2.75;;
47021;SDS011;32779;52.264;6.154;2022-07-19T07:56:03;9.63;;;2.47;;
47021;SDS011;32779;52.264;6.154;2022-07-19T07:58:29;6.85;;;2.45;;
47021;SDS011;32779;52.264;6.154;2022-07-19T08:00:55;8.75;;;2.30;;
47021;SDS011;32779;52.264;6.154;2022-07-19T08:03:20;5.50;;;2.15;;
47021;SDS011;32779;52.264;6.154;2022-07-19T08:05:46;5.30;;;2.08;;
47021;SDS011;32779;52.264;6.154;2022-07-19T08:08:15;8.00;;;2.65;;
47021;SDS011;32779;52.264;6.154;2022-07-19T08:10:41;5.15;;;2.10;;
47021;SDS011;32779;52.264;6.154;2022-07-19T08:13:06;6.07;;;2.13;;
47021;SDS011;32779;52.264;6.154;2022-07-19T08:15:33;5.35;;;2.20;;
47021;SDS011;32779;52.264;6.154;2022-07-19T08:17:59;4.55;;;1.70;;
47021;SDS011;32779;52.264;6.154;2022-07-19T08:20:24;7.47;;;2.22;;
47021;SDS011;32779;52.264;6.154;2022-07-19T08:22:50;13.25;;;2.33;;
47021;SDS011;32779;52.264;6.154;2022-07-19T08:25:15;3.92;;;2.08;;
47021;SDS011;32779;52.264;6.154;2022-07-19T08:27:42;9.45;;;1.90;;
47021;SDS011;32779;52.264;6.154;2022-07-19T08:30:08;7.35;;;1.92;;
47021;SDS011;32779;52.264;6.154;2022-07-19T08:32:35;3.67;;;1.70;;
47021;SDS011;32779;52.264;6.154;2022-07-19T08:35:01;3.83;;;1.60;;
47021;SDS011;32779;52.264;6.154;2022-07-19T08:37:27;5.43;;;1.35;;
47021;SDS011;32779;52.264;6.154;2022-07-19T08:39:52;2.67;;;1.75;;
47021;SDS011;32779;52.264;6.154;2022-07-19T08:42:19;6.47;;;1.83;;
47021;SDS011;32779;52.264;6.154;2022-07-19T08:44:46;6.18;;;2.17;;
47021;SDS011;32779;52.264;6.154;2022-07-19T08:47:15;4.15;;;1.63;;
47021;SDS011;32779;52.264;6.154;2022-07-19T08:49:43;8.50;;;2.45;;
47021;SDS011;32779;52.264;6.154;2022-07-19T08:52:09;8.05;;;1.95;;
47021;SDS011;32779;52.264;6.154;2022-07-19T08:54:36;3.40;;;1.70;;
47021;SDS011;32779;52.264;6.154;2022-07-19T08:57:02;7.85;;;1.77;;
47021;SDS011;32779;52.264;6.154;2022-07-19T08:59:46;4.53;;;1.50;;
47021;SDS011;32779;52.264;6.154;2022-07-19T09:02:12;3.55;;;1.75;;
47021;SDS011;32779;52.264;6.154;2022-07-19T09:04:37;3.78;;;1.40;;
47021;SDS011;32779;52.264;6.154;2022-07-19T09:07:03;11.68;;;1.40;;
47021;SDS011;32779;52.264;6.154;2022-07-19T09:09:30;6.40;;;1.50;;
47021;SDS011;32779;52.264;6.154;2022-07-19T09:11:57;6.10;;;1.85;;
47021;SDS011;32779;52.264;6.154;2022-07-19T09:14:28;6.93;;;1.65;;
47021;SDS011;32779;52.264;6.154;2022-07-19T09:16:56;3.30;;;1.30;;
47021;SDS011;32779;52.264;6.154;2022-07-19T09:19:22;2.95;;;1.33;;
47021;SDS011;32779;52.264;6.154;2022-07-19T09:24:35;6.32;;;1.75;;
47021;SDS011;32779;52.264;6.154;2022-07-19T09:29:35;5.68;;;1.58;;
47021;SDS011;32779;52.264;6.154;2022-07-19T09:34:36;8.75;;;1.42;;
47021;SDS011;32779;52.264;6.154;2022-07-19T09:37:23;7.20;;;1.67;;
47021;SDS011;32779;52.264;6.154;2022-07-19T09:40:11;3.58;;;1.50;;
47021;SDS011;32779;52.264;6.154;2022-07-19T09:42:38;7.07;;;1.30;;
47021;SDS011;32779;52.264;6.154;2022-07-19T09:45:05;5.55;;;1.30;;
47021;SDS011;32779;52.264;6.154;2022-07-19T09:47:35;5.80;;;1.60;;
47021;SDS011;32779;52.264;6.154;2022-07-19T09:50:02;3.10;;;1.50;;
47021;SDS011;32779;52.264;6.154;2022-07-19T09:52:33;8.40;;;1.63;;
47021;SDS011;32779;52.264;6.154;2022-07-19T09:55:02;2.95;;;1.35;;
47021;SDS011;32779;52.264;6.154;2022-07-19T09:57:29;6.30;;;1.13;;
47021;SDS011;32779;52.264;6.154;2022-07-19T10:00:04;10.70;;;1.90;;
47021;SDS011;32779;52.264;6.154;2022-07-19T10:02:33;5.93;;;1.60;;
47021;SDS011;32779;52.264;6.154;2022-07-19T10:05:01;3.92;;;1.30;;
47021;SDS011;32779;52.264;6.154;2022-07-19T10:07:28;11.23;;;1.92;;
47021;SDS011;32779;52.264;6.154;2022-07-19T10:09:55;4.68;;;1.55;;
47021;SDS011;32779;52.264;6.154;2022-07-19T10:12:21;4.25;;;1.30;;
47021;SDS011;32779;52.264;6.154;2022-07-19T10:14:47;3.78;;;1.30;;
47021;SDS011;32779;52.264;6.154;2022-07-19T10:20:11;6.35;;;1.30;;
47021;SDS011;32779;52.264;6.154;2022-07-19T10:22:41;3.00;;;0.90;;
47021;SDS011;32779;52.264;6.154;2022-07-19T10:25:11;3.63;;;1.52;;
47021;SDS011;32779;52.264;6.154;2022-07-19T10:27:41;10.20;;;1.70;;
47021;SDS011;32779;52.264;6.154;2022-07-19T10:32:38;7.18;;;1.30;;
47021;SDS011;32779;52.264;6.154;2022-07-19T10:35:15;5.00;;;1.58;;
47021;SDS011;32779;52.264;6.154;2022-07-19T10:37:42;4.22;;;1.48;;
47021;SDS011;32779;52.264;6.154;2022-07-19T10:40:09;6.75;;;2.00;;
47021;SDS011;32779;52.264;6.154;2022-07-19T10:42:34;2.67;;;1.20;;
47021;SDS011;32779;52.264;6.154;2022-07-19T10:50:01;4.18;;;1.42;;
47021;SDS011;32779;52.264;6.154;2022-07-19T10:57:52;2.13;;;1.17;;
47021;SDS011;32779;52.264;6.154;2022-07-19T11:00:33;2.58;;;1.30;;
47021;SDS011;32779;52.264;6.154;2022-07-19T11:05:57;5.13;;;1.60;;
47021;SDS011;32779;52.264;6.154;2022-07-19T11:08:34;2.00;;;1.33;;
47021;SDS011;32779;52.264;6.154;2022-07-19T11:11:02;2.85;;;1.20;;
47021;SDS011;32779;52.264;6.154;2022-07-19T11:13:29;3.72;;;1.65;;
47021;SDS011;32779;52.264;6.154;2022-07-19T11:15:55;5.25;;;1.45;;
47021;SDS011;32779;52.264;6.154;2022-07-19T11:18:21;2.03;;;1.30;;
47021;SDS011;32779;52.264;6.154;2022-07-19T11:20:47;4.80;;;1.50;;
47021;SDS011;32779;52.264;6.154;2022-07-19T11:23:16;2.47;;;1.15;;
47021;SDS011;32779;52.264;6.154;2022-07-19T11:25:43;4.00;;;1.20;;
47021;SDS011;32779;52.264;6.154;2022-07-19T11:28:22;3.28;;;1.20;;
47021;SDS011;32779;52.264;6.154;2022-07-19T11:30:49;5.97;;;1.77;;
47021;SDS011;32779;52.264;6.154;2022-07-19T11:33:16;6.05;;;1.73;;
47021;SDS011;32779;52.264;6.154;2022-07-19T11:35:53;2.50;;;1.10;;
47021;SDS011;32779;52.264;6.154;2022-07-19T11:38:22;4.60;;;1.10;;
47021;SDS011;32779;52.264;6.154;2022-07-19T11:40:49;1.80;;;1.20;;
47021;SDS011;32779;52.264;6.154;2022-07-19T11:43:14;2.25;;;1.25;;
47021;SDS011;32779;52.264;6.154;2022-07-19T11:45:41;1.90;;;1.23;;
47021;SDS011;32779;52.264;6.154;2022-07-19T11:48:08;4.47;;;1.40;;
47021;SDS011;32779;52.264;6.154;2022-07-19T11:50:33;4.32;;;1.30;;
47021;SDS011;32779;52.264;6.154;2022-07-19T11:52:59;1.02;;;0.93;;
47021;SDS011;32779;52.264;6.154;2022-07-19T11:55:25;7.47;;;1.55;;
47021;SDS011;32779;52.264;6.154;2022-07-19T11:58:04;1.60;;;1.33;;
47021;SDS011;32779;52.264;6.154;2022-07-19T12:00:32;4.63;;;1.10;;
47021;SDS011;32779;52.264;6.154;2022-07-19T12:03:02;9.48;;;1.50;;
47021;SDS011;32779;52.264;6.154;2022-07-19T12:05:32;11.05;;;1.35;;
47021;SDS011;32779;52.264;6.154;2022-07-19T12:08:03;3.95;;;1.40;;
47021;SDS011;32779;52.264;6.154;2022-07-19T12:10:40;7.38;;;1.63;;
47021;SDS011;32779;52.264;6.154;2022-07-19T12:13:11;2.65;;;1.20;;
47021;SDS011;32779;52.264;6.154;2022-07-19T12:15:45;3.72;;;1.00;;
47021;SDS011;32779;52.264;6.154;2022-07-19T12:18:22;5.43;;;1.40;;
47021;SDS011;32779;52.264;6.154;2022-07-19T12:29:20;3.85;;;1.00;;
47021;SDS011;32779;52.264;6.154;2022-07-19T12:32:11;1.77;;;1.00;;
47021;SDS011;32779;52.264;6.154;2022-07-19T12:34:54;5.35;;;1.13;;
47021;SDS011;32779;52.264;6.154;2022-07-19T12:37:36;3.58;;;1.10;;
47021;SDS011;32779;52.264;6.154;2022-07-19T12:42:37;4.50;;;1.40;;
47021;SDS011;32779;52.264;6.154;2022-07-19T12:45:04;2.15;;;1.38;;
47021;SDS011;32779;52.264;6.154;2022-07-19T12:47:31;6.95;;;1.42;;
47021;SDS011;32779;52.264;6.154;2022-07-19T12:49:57;1.75;;;1.00;;
47021;SDS011;32779;52.264;6.154;2022-07-19T12:52:22;2.85;;;1.10;;
47021;SDS011;32779;52.264;6.154;2022-07-19T12:54:48;1.20;;;1.08;;
47021;SDS011;32779;52.264;6.154;2022-07-19T12:57:13;2.67;;;1.20;;
47021;SDS011;32779;52.264;6.154;2022-07-19T12:59:39;3.45;;;1.17;;
47021;SDS011;32779;52.264;6.154;2022-07-19T13:02:12;1.88;;;1.40;;
47021;SDS011;32779;52.264;6.154;2022-07-19T13:04:39;4.53;;;1.20;;
47021;SDS011;32779;52.264;6.154;2022-07-19T13:07:06;4.00;;;1.42;;
47021;SDS011;32779;52.264;6.154;2022-07-19T13:09:33;3.30;;;0.95;;
47021;SDS011;32779;52.264;6.154;2022-07-19T13:12:01;2.40;;;1.30;;
47021;SDS011;32779;52.264;6.154;2022-07-19T13:14:27;5.00;;;1.25;;
47021;SDS011;32779;52.264;6.154;2022-07-19T13:16:53;6.00;;;1.35;;
47021;SDS011;32779;52.264;6.154;2022-07-19T13:19:19;5.03;;;1.55;;
47021;SDS011;32779;52.264;6.154;2022-07-19T13:21:45;4.63;;;1.90;;
47021;SDS011;32779;52.264;6.154;2022-07-19T13:24:10;7.30;;;1.52;;
47021;SDS011;32779;52.264;6.154;2022-07-19T13:26:36;5.75;;;1.50;;
47021;SDS011;32779;52.264;6.154;2022-07-19T13:29:02;3.78;;;1.38;;
47021;SDS011;32779;52.264;6.154;2022-07-19T13:31:28;2.15;;;1.13;;
47021;SDS011;32779;52.264;6.154;2022-07-19T13:33:53;7.93;;;1.65;;
47021;SDS011;32779;52.264;6.154;2022-07-19T13:36:22;5.35;;;1.30;;
47021;SDS011;32779;52.264;6.154;2022-07-19T13:38:47;6.57;;;1.83;;
47021;SDS011;32779;52.264;6.154;2022-07-19T13:41:13;5.32;;;1.65;;
47021;SDS011;32779;52.264;6.154;2022-07-19T13:43:40;4.80;;;1.42;;
47021;SDS011;32779;52.264;6.154;2022-07-19T13:46:06;3.85;;;1.30;;
47021;SDS011;32779;52.264;6.154;2022-07-19T13:48:31;3.10;;;1.45;;
47021;SDS011;32779;52.264;6.154;2022-07-19T13:50:57;2.90;;;1.38;;
47021;SDS011;32779;52.264;6.154;2022-07-19T13:53:23;4.13;;;1.52;;
47021;SDS011;32779;52.264;6.154;2022-07-19T13:55:48;9.23;;;1.45;;
47021;SDS011;32779;52.264;6.154;2022-07-19T13:58:14;11.35;;;1.50;;
47021;SDS011;32779;52.264;6.154;2022-07-19T14:00:41;3.00;;;1.48;;
47021;SDS011;32779;52.264;6.154;2022-07-19T14:03:11;3.50;;;1.70;;
47021;SDS011;32779;52.264;6.154;2022-07-19T14:05:38;5.55;;;1.40;;
47021;SDS011;32779;52.264;6.154;2022-07-19T14:08:04;8.18;;;1.75;;
47021;SDS011;32779;52.264;6.154;2022-07-19T14:10:29;8.40;;;1.58;;
47021;SDS011;32779;52.264;6.154;2022-07-19T14:12:55;4.57;;;1.42;;
47021;SDS011;32779;52.264;6.154;2022-07-19T14:15:21;3.78;;;1.30;;
47021;SDS011;32779;52.264;6.154;2022-07-19T14:17:47;1.60;;;1.10;;
47021;SDS011;32779;52.264;6.154;2022-07-19T14:20:12;6.20;;;1.25;;
47021;SDS011;32779;52.264;6.154;2022-07-19T14:22:38;6.13;;;1.05;;
47021;SDS011;32779;52.264;6.154;2022-07-19T14:25:03;4.53;;;1.23;;
47021;SDS011;32779;52.264;6.154;2022-07-19T14:27:29;4.45;;;1.40;;
47021;SDS011;32779;52.264;6.154;2022-07-19T14:29:55;5.80;;;1.48;;
47021;SDS011;32779;52.264;6.154;2022-07-19T14:32:22;6.00;;;1.20;;
47021;SDS011;32779;52.264;6.154;2022-07-19T14:34:47;3.33;;;1.13;;
47021;SDS011;32779;52.264;6.154;2022-07-19T14:37:13;7.38;;;1.40;;
47021;SDS011;32779;52.264;6.154;2022-07-19T14:39:38;4.18;;;1.02;;
47021;SDS011;32779;52.264;6.154;2022-07-19T14:42:04;2.22;;;1.38;;
47021;SDS011;32779;52.264;6.154;2022-07-19T14:44:30;4.25;;;1.25;;
47021;SDS011;32779;52.264;6.154;2022-07-19T14:46:55;2.58;;;1.48;;
47021;SDS011;32779;52.264;6.154;2022-07-19T14:49:22;7.35;;;1.58;;
47021;SDS011;32779;52.264;6.154;2022-07-19T14:51:48;6.72;;;1.67;;
47021;SDS011;32779;52.264;6.154;2022-07-19T14:54:14;3.90;;;1.30;;
47021;SDS011;32779;52.264;6.154;2022-07-19T14:56:39;1.88;;;1.35;;
47021;SDS011;32779;52.264;6.154;2022-07-19T14:59:05;3.53;;;1.40;;
47021;SDS011;32779;52.264;6.154;2022-07-19T15:01:30;2.65;;;1.60;;
47021;SDS011;32779;52.264;6.154;2022-07-19T15:03:56;3.60;;;1.63;;
47021;SDS011;32779;52.264;6.154;2022-07-19T15:06:22;4.93;;;1.48;;
47021;SDS011;32779;52.264;6.154;2022-07-19T15:08:47;3.88;;;1.65;;
47021;SDS011;32779;52.264;6.154;2022-07-19T15:11:13;3.97;;;1.60;;
47021;SDS011;32779;52.264;6.154;2022-07-19T15:13:39;3.72;;;1.73;;
47021;SDS011;32779;52.264;6.154;2022-07-19T15:16:04;5.38;;;1.40;;
47021;SDS011;32779;52.264;6.154;2022-07-19T15:18:30;6.53;;;1.75;;
47021;SDS011;32779;52.264;6.154;2022-07-19T15:20:56;5.20;;;1.88;;
47021;SDS011;32779;52.264;6.154;2022-07-19T15:23:22;6.22;;;1.60;;
47021;SDS011;32779;52.264;6.154;2022-07-19T15:25:48;10.48;;;2.63;;
47021;SDS011;32779;52.264;6.154;2022-07-19T15:28:14;6.60;;;1.67;;
47021;SDS011;32779;52.264;6.154;2022-07-19T15:30:41;3.33;;;1.65;;
47021;SDS011;32779;52.264;6.154;2022-07-19T15:33:07;4.93;;;1.88;;
47021;SDS011;32779;52.264;6.154;2022-07-19T15:35:33;8.52;;;2.05;;
47021;SDS011;32779;52.264;6.154;2022-07-19T15:37:58;4.45;;;1.60;;
47021;SDS011;32779;52.264;6.154;2022-07-19T15:40:24;7.10;;;1.90;;
47021;SDS011;32779;52.264;6.154;2022-07-19T15:42:50;4.30;;;1.90;;
47021;SDS011;32779;52.264;6.154;2022-07-19T15:45:17;6.00;;;1.50;;
47021;SDS011;32779;52.264;6.154;2022-07-19T15:47:44;2.83;;;1.58;;
47021;SDS011;32779;52.264;6.154;2022-07-19T15:50:11;3.25;;;1.90;;
47021;SDS011;32779;52.264;6.154;2022-07-19T15:52:37;6.10;;;1.67;;